Georg Jacob — A8XG5 — position and weather

sailwx.info

Track history (hours):
 
Tides and Currents Weather Stations Pressure Air Temp Water Temp Dewpoint Dewpoint Depression Visibility Wind Speed Wind Dir Waves Ship Positions

Georg Jacob

Last reported at 2014-Jul-31 16:33 UTC. Time now 2014-Jul-31 17:35 UTC.
Position N 51°17' E 004°20'.

Length 229 m; draft 14.9 m.

Type: Tanker. MMSI: 636092136.

Date/timePositionNaut miles runAvg speedWind from/ knotsBaromVisibWave heightAir tempDewpointWater temp
2014-Jul-31 16:33N 51°17' E 004°20'0 0.0
2014-Jul-31 15:33N 51°17' E 004°20'0 0.0
2014-Jul-31 14:33N 51°17' E 004°20'0 0.0
2014-Jul-31 13:33N 51°17' E 004°20'0 0.0
2014-Jul-31 12:33N 51°17' E 004°20'0 0.0
2014-Jul-31 11:33N 51°17' E 004°20'0 0.0
2014-Jul-31 10:33N 51°17' E 004°20'0 0.0
2014-Jul-31 09:30N 51°17' E 004°20'0 0.0
2014-Jul-31 08:30N 51°17' E 004°20'0 0.0
2014-Jul-31 07:33N 51°17' E 004°20'0 0.0
2014-Jul-31 06:33N 51°17' E 004°20'0 0.0
2014-Jul-31 05:27N 51°17' E 004°20'0 0.0
2014-Jul-31 04:30N 51°17' E 004°20'0 0.0
2014-Jul-31 03:30N 51°17' E 004°20'0 0.0
2014-Jul-31 02:30N 51°17' E 004°20'0 0.0
2014-Jul-31 01:33N 51°17' E 004°20'0 0.0
2014-Jul-31 00:33N 51°17' E 004°20'0 0.0
2014-Jul-30 23:33N 51°17' E 004°20'0 0.0
2014-Jul-30 22:33N 51°17' E 004°20'0 0.5
2014-Jul-30 21:33N 51°18' E 004°20'3 2.9
2014-Jul-30 20:34N 51°20' E 004°18'1 0.7
2014-Jul-30 19:34N 51°21' E 004°17'0 0.0
2014-Jul-30 18:34N 51°21' E 004°17'1 0.9
2014-Jul-30 17:34N 51°21' E 004°16'4 3.8
2014-Jul-30 16:33N 51°24' E 004°12'7 6.9
2014-Jul-30 15:33N 51°26' E 004°01'1010.2
2014-Jul-30 14:33N 51°21' E 003°46'9 9.3
2014-Jul-30 13:33N 51°25' E 003°33'1212.0
2014-Jul-30 12:33N 51°24' E 003°13'1010.1
2014-Jul-30 11:33N 51°25' E 002°57'9 8.9
2014-Jul-30 10:33N 51°23' E 002°43'5 4.6
2014-Jul-30 09:30N 51°24' E 002°36'1 0.6
2014-Jul-30 08:32N 51°24' E 002°35'0 0.0
2014-Jul-30 07:32N 51°24' E 002°35'0 0.2
2014-Jul-30 06:26N 51°24' E 002°35'0 0.1
2014-Jul-30 05:32N 51°24' E 002°35'6 6.1
2014-Jul-30 04:29N 51°21' E 002°26'10 9.9
2014-Jul-30 03:29N 51°19' E 002°11'1010.2
2014-Jul-30 02:33N 51°25' E 001°59'9 9.1
2014-Jul-30 01:34N 51°32' E 002°08'1010.1
2014-Jul-30 00:34N 51°39' E 002°19'1111.5
2014-Jul-29 23:34N 51°48' E 002°31'1111.5
2014-Jul-29 22:34N 51°59' E 002°36'1212.4
2014-Jul-29 21:34N 52°11' E 002°37'1212.0
2014-Jul-29 20:34N 52°23' E 002°38'1111.1
2014-Jul-29 19:34N 52°34' E 002°38'1010.2
2014-Jul-29 18:33N 52°45' E 002°38'10 9.5
2014-Jul-29 17:34N 52°54' E 002°38'9 9.1
2014-Jul-29 16:33N 53°03' E 002°38'9 9.0
2014-Jul-29 15:34N 53°12' E 002°42'10 9.6
2014-Jul-29 14:33N 53°21' E 002°48'2610.5
2014-Jul-29 12:04N 53°45' E 003°04'8010.6
2014-Jul-29 04:32N 54°47' E 004°30'20410.6
2014-Jul-28 09:20N 57°22' E 008°30'810.0
2014-Jul-28 08:29N 57°27' E 008°42'9 9.9
2014-Jul-28 07:32N 57°33' E 008°56'10 9.9
2014-Jul-28 06:32N 57°39' E 009°11'1110.0
2014-Jul-28 05:24N 57°45' E 009°28'9 9.4
2014-Jul-28 04:29N 57°47' E 009°44'910.1
2014-Jul-28 03:33N 57°48' E 010°01'1010.1
2014-Jul-28 02:33N 57°50' E 010°20'1010.2
2014-Jul-28 01:33N 57°49' E 010°39'8 7.8
2014-Jul-28 00:34N 57°45' E 010°51'9 8.7
2014-Jul-27 23:34N 57°39' E 011°03'1111.2
2014-Jul-27 22:33N 57°32' E 011°18'1110.9
2014-Jul-27 21:32N 57°22' E 011°30'1111.3
2014-Jul-27 20:34N 57°12' E 011°36'1111.4
2014-Jul-27 19:33N 57°01' E 011°44'1111.2
2014-Jul-27 18:32N 56°50' E 011°51'1010.1
2014-Jul-27 17:33N 56°40' E 011°48'1111.2
2014-Jul-27 16:33N 56°31' E 011°38'1111.1
2014-Jul-27 15:31N 56°21' E 011°27'1111.0
2014-Jul-27 14:32N 56°11' E 011°18'1211.2
2014-Jul-27 13:30N 56°02' E 011°06'1111.5
2014-Jul-27 12:30N 55°54' E 010°52'40 9.2
2014-Jul-27 08:13N 55°15' E 011°05'5 7.8
2014-Jul-27 07:34N 55°10' E 011°02'10 9.9
2014-Jul-27 06:33N 55°00' E 010°59'10 9.8
2014-Jul-27 05:33N 54°52' E 010°50'1010.2
2014-Jul-27 04:33N 54°42' E 010°46'10 9.9
2014-Jul-27 03:33N 54°36' E 011°00'1010.2
2014-Jul-27 02:34N 54°34' E 011°17'1110.6
2014-Jul-27 01:34N 54°29' E 011°34'1110.6
2014-Jul-27 00:34N 54°27' E 011°51'1010.2
2014-Jul-26 23:33N 54°26' E 012°09'10 9.5
2014-Jul-26 22:34N 54°35' E 012°16'8 8.3
2014-Jul-26 21:34N 54°40' E 012°27'8 8.3
2014-Jul-26 20:34N 54°44' E 012°39'9 8.9
2014-Jul-26 19:34N 54°48' E 012°53'1110.6
2014-Jul-26 18:33N 54°52' E 013°10'1110.9
2014-Jul-26 17:33N 54°56' E 013°28'1110.7
2014-Jul-26 16:34N 54°59' E 013°46'1110.8
2014-Jul-26 15:34N 55°03' E 014°03'1010.0
2014-Jul-26 14:33N 55°08' E 014°18'1010.5
2014-Jul-26 13:33N 55°15' E 014°33'10 9.8
2014-Jul-26 12:33N 55°21' E 014°46'8 8.3
2014-Jul-26 11:34N 55°27' E 014°56'1010.4
2014-Jul-26 10:33N 55°35' E 015°07'1010.5
2014-Jul-26 09:34N 55°39' E 015°24'1110.6
2014-Jul-26 08:34N 55°42' E 015°42'1110.5
2014-Jul-26 07:32N 55°45' E 016°01'1110.8
2014-Jul-26 06:33N 55°47' E 016°19'1111.3
2014-Jul-26 05:34N 55°50' E 016°38'1110.8
2014-Jul-26 04:34N 55°53' E 016°57'1110.7
2014-Jul-26 03:33N 55°55' E 017°16'1110.7
2014-Jul-26 02:34N 55°58' E 017°34'1110.6
2014-Jul-26 01:34N 56°02' E 017°51'1110.7
2014-Jul-26 00:34N 56°08' E 018°07'1110.7
2014-Jul-25 23:34N 56°14' E 018°23'1110.7
2014-Jul-25 22:34N 56°20' E 018°39'1010.4
2014-Jul-25 21:34N 56°28' E 018°51'1110.7
2014-Jul-25 20:34N 56°37' E 019°00'1110.7
2014-Jul-25 19:34N 56°47' E 019°10'1110.7
2014-Jul-25 18:34N 56°56' E 019°19'1110.7
2014-Jul-25 17:30N 57°06' E 019°29'1110.5
2014-Jul-25 16:27N 57°13' E 019°46'2310.6
2014-Jul-25 14:16N 57°22' E 020°25'33 0.7
2014-Jul-23 12:33N 57°28' E 021°25'2 2.2
2014-Jul-23 11:33N 57°28' E 021°21'13 9.8
2014-Jul-23 10:17N 57°27' E 020°57'2211.1
2014-Jul-23 08:16N 57°30' E 020°16'811.5
2014-Jul-23 07:32N 57°24' E 020°04'1111.7
2014-Jul-23 06:33N 57°16' E 019°50'1211.8
2014-Jul-23 05:33N 57°06' E 019°37'1211.9
2014-Jul-23 04:34N 56°56' E 019°26'1212.1
2014-Jul-23 03:33N 56°45' E 019°16'1212.2
2014-Jul-23 02:33N 56°34' E 019°06'1212.1
2014-Jul-23 01:33N 56°24' E 018°55'1111.5
2014-Jul-23 00:34N 56°15' E 018°42'1211.7
2014-Jul-22 23:33N 56°09' E 018°24'1211.7
2014-Jul-22 22:33N 56°03' E 018°06'1211.9
2014-Jul-22 21:34N 55°57' E 017°48'1211.7
2014-Jul-22 20:34N 55°53' E 017°28'1211.8
2014-Jul-22 19:34N 55°50' E 017°08'1211.9
2014-Jul-22 18:33N 55°47' E 016°47'1211.8
2014-Jul-22 17:33N 55°45' E 016°27'1211.7
2014-Jul-22 16:33N 55°42' E 016°06'1211.6
2014-Jul-22 15:33N 55°39' E 015°46'1110.8
2014-Jul-22 14:34N 55°36' E 015°28'1111.1
2014-Jul-22 13:34N 55°32' E 015°10'1111.1
2014-Jul-22 12:33N 55°27' E 014°52'1110.8
2014-Jul-22 11:33N 55°21' E 014°36'1111.5
2014-Jul-22 10:33N 55°12' E 014°24'1211.7
2014-Jul-22 09:33N 55°03' E 014°11'1111.1
2014-Jul-22 08:33N 54°58' E 013°54'1211.9
2014-Jul-22 07:33N 54°55' E 013°34'1313.3
2014-Jul-22 06:34N 54°50' E 013°12'1212.0
2014-Jul-22 05:33N 54°47' E 012°53'1211.7
2014-Jul-22 04:33N 54°42' E 012°34'1110.8
2014-Jul-22 03:34N 54°35' E 012°19'9 8.9
2014-Jul-22 02:33N 54°27' E 012°12'1111.1
2014-Jul-22 01:33N 54°25' E 011°54'1212.1
2014-Jul-22 00:34N 54°28' E 011°34'1212.0
2014-Jul-21 23:33N 54°34' E 011°15'1211.7
2014-Jul-21 22:33N 54°40' E 010°58'9 8.8
2014-Jul-21 21:33N 54°48' E 010°51'1111.0
2014-Jul-21 20:33N 54°58' E 010°58'312.2
2014-Jul-21 20:18N 55°01' E 011°01'1211.3
2014-Jul-21 19:15N 55°12' E 011°05'  
Track history (hours):
 
Tides and Currents Weather Stations Pressure Air Temp Water Temp Dewpoint Dewpoint Depression Visibility Wind Speed Wind Dir Waves Ship Positions

Georg Jacob

Last reported at 2014-Jul-31 16:33 UTC. Time now 2014-Jul-31 17:35 UTC.
Position N 51°17' E 004°20'.

Length 229 m; draft 14.9 m.

Type: Tanker. MMSI: 636092136.

Date/timePositionNaut miles runAvg speedWind from/ knotsBaromVisibWave heightAir tempDewpointWater temp
2014-Jul-31 16:33N 51°17' E 004°20'0 0.0
2014-Jul-31 15:33N 51°17' E 004°20'0 0.0
2014-Jul-31 14:33N 51°17' E 004°20'0 0.0
2014-Jul-31 13:33N 51°17' E 004°20'0 0.0
2014-Jul-31 12:33N 51°17' E 004°20'0 0.0
2014-Jul-31 11:33N 51°17' E 004°20'0 0.0
2014-Jul-31 10:33N 51°17' E 004°20'0 0.0
2014-Jul-31 09:30N 51°17' E 004°20'0 0.0
2014-Jul-31 08:30N 51°17' E 004°20'0 0.0
2014-Jul-31 07:33N 51°17' E 004°20'0 0.0
2014-Jul-31 06:33N 51°17' E 004°20'0 0.0
2014-Jul-31 05:27N 51°17' E 004°20'0 0.0
2014-Jul-31 04:30N 51°17' E 004°20'0 0.0
2014-Jul-31 03:30N 51°17' E 004°20'0 0.0
2014-Jul-31 02:30N 51°17' E 004°20'0 0.0
2014-Jul-31 01:33N 51°17' E 004°20'0 0.0
2014-Jul-31 00:33N 51°17' E 004°20'0 0.0
2014-Jul-30 23:33N 51°17' E 004°20'0 0.0
2014-Jul-30 22:33N 51°17' E 004°20'0 0.5
2014-Jul-30 21:33N 51°18' E 004°20'3 2.9
2014-Jul-30 20:34N 51°20' E 004°18'1 0.7
2014-Jul-30 19:34N 51°21' E 004°17'0 0.0
2014-Jul-30 18:34N 51°21' E 004°17'1 0.9
2014-Jul-30 17:34N 51°21' E 004°16'4 3.8
2014-Jul-30 16:33N 51°24' E 004°12'7 6.9
2014-Jul-30 15:33N 51°26' E 004°01'1010.2
2014-Jul-30 14:33N 51°21' E 003°46'9 9.3
2014-Jul-30 13:33N 51°25' E 003°33'1212.0
2014-Jul-30 12:33N 51°24' E 003°13'1010.1
2014-Jul-30 11:33N 51°25' E 002°57'9 8.9
2014-Jul-30 10:33N 51°23' E 002°43'5 4.6
2014-Jul-30 09:30N 51°24' E 002°36'1 0.6
2014-Jul-30 08:32N 51°24' E 002°35'0 0.0
2014-Jul-30 07:32N 51°24' E 002°35'0 0.2
2014-Jul-30 06:26N 51°24' E 002°35'0 0.1
2014-Jul-30 05:32N 51°24' E 002°35'6 6.1
2014-Jul-30 04:29N 51°21' E 002°26'10 9.9
2014-Jul-30 03:29N 51°19' E 002°11'1010.2
2014-Jul-30 02:33N 51°25' E 001°59'9 9.1
2014-Jul-30 01:34N 51°32' E 002°08'1010.1
2014-Jul-30 00:34N 51°39' E 002°19'1111.5
2014-Jul-29 23:34N 51°48' E 002°31'1111.5
2014-Jul-29 22:34N 51°59' E 002°36'1212.4
2014-Jul-29 21:34N 52°11' E 002°37'1212.0
2014-Jul-29 20:34N 52°23' E 002°38'1111.1
2014-Jul-29 19:34N 52°34' E 002°38'1010.2
2014-Jul-29 18:33N 52°45' E 002°38'10 9.5
2014-Jul-29 17:34N 52°54' E 002°38'9 9.1
2014-Jul-29 16:33N 53°03' E 002°38'9 9.0
2014-Jul-29 15:34N 53°12' E 002°42'10 9.6
2014-Jul-29 14:33N 53°21' E 002°48'2610.5
2014-Jul-29 12:04N 53°45' E 003°04'8010.6
2014-Jul-29 04:32N 54°47' E 004°30'20410.6
2014-Jul-28 09:20N 57°22' E 008°30'810.0
2014-Jul-28 08:29N 57°27' E 008°42'9 9.9
2014-Jul-28 07:32N 57°33' E 008°56'10 9.9
2014-Jul-28 06:32N 57°39' E 009°11'1110.0
2014-Jul-28 05:24N 57°45' E 009°28'9 9.4
2014-Jul-28 04:29N 57°47' E 009°44'910.1
2014-Jul-28 03:33N 57°48' E 010°01'1010.1
2014-Jul-28 02:33N 57°50' E 010°20'1010.2
2014-Jul-28 01:33N 57°49' E 010°39'8 7.8
2014-Jul-28 00:34N 57°45' E 010°51'9 8.7
2014-Jul-27 23:34N 57°39' E 011°03'1111.2
2014-Jul-27 22:33N 57°32' E 011°18'1110.9
2014-Jul-27 21:32N 57°22' E 011°30'1111.3
2014-Jul-27 20:34N 57°12' E 011°36'1111.4
2014-Jul-27 19:33N 57°01' E 011°44'1111.2
2014-Jul-27 18:32N 56°50' E 011°51'1010.1
2014-Jul-27 17:33N 56°40' E 011°48'1111.2
2014-Jul-27 16:33N 56°31' E 011°38'1111.1
2014-Jul-27 15:31N 56°21' E 011°27'1111.0
2014-Jul-27 14:32N 56°11' E 011°18'1211.2
2014-Jul-27 13:30N 56°02' E 011°06'1111.5
2014-Jul-27 12:30N 55°54' E 010°52'40 9.2
2014-Jul-27 08:13N 55°15' E 011°05'5 7.8
2014-Jul-27 07:34N 55°10' E 011°02'10 9.9
2014-Jul-27 06:33N 55°00' E 010°59'10 9.8
2014-Jul-27 05:33N 54°52' E 010°50'1010.2
2014-Jul-27 04:33N 54°42' E 010°46'10 9.9
2014-Jul-27 03:33N 54°36' E 011°00'1010.2
2014-Jul-27 02:34N 54°34' E 011°17'1110.6
2014-Jul-27 01:34N 54°29' E 011°34'1110.6
2014-Jul-27 00:34N 54°27' E 011°51'1010.2
2014-Jul-26 23:33N 54°26' E 012°09'10 9.5
2014-Jul-26 22:34N 54°35' E 012°16'8 8.3
2014-Jul-26 21:34N 54°40' E 012°27'8 8.3
2014-Jul-26 20:34N 54°44' E 012°39'9 8.9
2014-Jul-26 19:34N 54°48' E 012°53'1110.6
2014-Jul-26 18:33N 54°52' E 013°10'1110.9
2014-Jul-26 17:33N 54°56' E 013°28'1110.7
2014-Jul-26 16:34N 54°59' E 013°46'1110.8
2014-Jul-26 15:34N 55°03' E 014°03'1010.0
2014-Jul-26 14:33N 55°08' E 014°18'1010.5
2014-Jul-26 13:33N 55°15' E 014°33'10 9.8
2014-Jul-26 12:33N 55°21' E 014°46'8 8.3
2014-Jul-26 11:34N 55°27' E 014°56'1010.4
2014-Jul-26 10:33N 55°35' E 015°07'1010.5
2014-Jul-26 09:34N 55°39' E 015°24'1110.6
2014-Jul-26 08:34N 55°42' E 015°42'1110.5
2014-Jul-26 07:32N 55°45' E 016°01'1110.8
2014-Jul-26 06:33N 55°47' E 016°19'1111.3
2014-Jul-26 05:34N 55°50' E 016°38'1110.8
2014-Jul-26 04:34N 55°53' E 016°57'1110.7
2014-Jul-26 03:33N 55°55' E 017°16'1110.7
2014-Jul-26 02:34N 55°58' E 017°34'1110.6
2014-Jul-26 01:34N 56°02' E 017°51'1110.7
2014-Jul-26 00:34N 56°08' E 018°07'1110.7
2014-Jul-25 23:34N 56°14' E 018°23'1110.7
2014-Jul-25 22:34N 56°20' E 018°39'1010.4
2014-Jul-25 21:34N 56°28' E 018°51'1110.7
2014-Jul-25 20:34N 56°37' E 019°00'1110.7
2014-Jul-25 19:34N 56°47' E 019°10'1110.7
2014-Jul-25 18:34N 56°56' E 019°19'1110.7
2014-Jul-25 17:30N 57°06' E 019°29'1110.5
2014-Jul-25 16:27N 57°13' E 019°46'2310.6
2014-Jul-25 14:16N 57°22' E 020°25'33 0.7
2014-Jul-23 12:33N 57°28' E 021°25'2 2.2
2014-Jul-23 11:33N 57°28' E 021°21'13 9.8
2014-Jul-23 10:17N 57°27' E 020°57'2211.1
2014-Jul-23 08:16N 57°30' E 020°16'811.5
2014-Jul-23 07:32N 57°24' E 020°04'1111.7
2014-Jul-23 06:33N 57°16' E 019°50'1211.8
2014-Jul-23 05:33N 57°06' E 019°37'1211.9
2014-Jul-23 04:34N 56°56' E 019°26'1212.1
2014-Jul-23 03:33N 56°45' E 019°16'1212.2
2014-Jul-23 02:33N 56°34' E 019°06'1212.1
2014-Jul-23 01:33N 56°24' E 018°55'1111.5
2014-Jul-23 00:34N 56°15' E 018°42'1211.7
2014-Jul-22 23:33N 56°09' E 018°24'1211.7
2014-Jul-22 22:33N 56°03' E 018°06'1211.9
2014-Jul-22 21:34N 55°57' E 017°48'1211.7
2014-Jul-22 20:34N 55°53' E 017°28'1211.8
2014-Jul-22 19:34N 55°50' E 017°08'1211.9
2014-Jul-22 18:33N 55°47' E 016°47'1211.8
2014-Jul-22 17:33N 55°45' E 016°27'1211.7
2014-Jul-22 16:33N 55°42' E 016°06'1211.6
2014-Jul-22 15:33N 55°39' E 015°46'1110.8
2014-Jul-22 14:34N 55°36' E 015°28'1111.1
2014-Jul-22 13:34N 55°32' E 015°10'1111.1
2014-Jul-22 12:33N 55°27' E 014°52'1110.8
2014-Jul-22 11:33N 55°21' E 014°36'1111.5
2014-Jul-22 10:33N 55°12' E 014°24'1211.7
2014-Jul-22 09:33N 55°03' E 014°11'1111.1
2014-Jul-22 08:33N 54°58' E 013°54'1211.9
2014-Jul-22 07:33N 54°55' E 013°34'1313.3
2014-Jul-22 06:34N 54°50' E 013°12'1212.0
2014-Jul-22 05:33N 54°47' E 012°53'1211.7
2014-Jul-22 04:33N 54°42' E 012°34'1110.8
2014-Jul-22 03:34N 54°35' E 012°19'9 8.9
2014-Jul-22 02:33N 54°27' E 012°12'1111.1
2014-Jul-22 01:33N 54°25' E 011°54'1212.1
2014-Jul-22 00:34N 54°28' E 011°34'1212.0
2014-Jul-21 23:33N 54°34' E 011°15'1211.7
2014-Jul-21 22:33N 54°40' E 010°58'9 8.8
2014-Jul-21 21:33N 54°48' E 010°51'1111.0
2014-Jul-21 20:33N 54°58' E 010°58'312.2
2014-Jul-21 20:18N 55°01' E 011°01'1211.3
2014-Jul-21 19:15N 55°12' E 011°05'  

Dump ship's entire track history